Time;durP1;ratioP1;P1;durP2;ratioP2;P2;SDS_P1;SDS_P2;PMS_P1;PMS_P2;Temp;Humidity;BMP_temperature;BMP_pressure;BME280_temperature;BME280_humidity;BME280_pressure;Samples;Min_cycle;Max_cycle;Signal;HPM_P1;HPM_P2
2022/07/10 00:01:05;;;;;;;;;11.60;11.00;;;;;23.13;45.55;98814.69;6265305;27;96402;-61
2022/07/10 00:04:08;;;;;;;;;12.00;11.00;;;;;23.10;45.92;98812.56;6266979;27;96971;-61
2022/07/10 00:07:11;;;;;;;;;14.40;13.00;;;;;23.08;45.46;98817.53;6267362;27;97470;-62
2022/07/10 00:10:17;;;;;;;;;14.00;14.00;;;;;23.07;45.57;98813.16;6231531;27;98686;-62
2022/07/10 00:13:21;;;;;;;;;15.00;11.00;;;;;23.04;45.55;98811.03;6265660;27;96699;-61
2022/07/10 00:16:24;;;;;;;;;11.00;11.00;;;;;23.04;45.66;98805.53;6265756;27;96883;-59
2022/07/10 00:19:28;;;;;;;;;10.20;9.20;;;;;23.04;46.08;98802.78;6266011;27;96903;-61
2022/07/10 00:22:31;;;;;;;;;14.25;12.75;;;;;23.03;45.88;98814.06;6266825;27;96486;-60
2022/07/10 00:25:36;;;;;;;;;11.60;10.60;;;;;23.02;45.99;98801.47;6266047;27;97508;-60
2022/07/10 00:28:39;;;;;;;;;13.00;11.00;;;;;23.00;46.04;98801.75;6265007;27;97526;-62
2022/07/10 00:31:43;;;;;;;;;13.00;12.75;;;;;23.02;46.08;98801.47;6265437;27;96424;-59
2022/07/10 00:34:46;;;;;;;;;13.00;12.00;;;;;23.00;46.28;98799.00;6265689;27;96837;-58
2022/07/10 00:37:50;;;;;;;;;13.40;13.00;;;;;22.99;46.24;98797.38;6265763;27;97449;-62
2022/07/10 00:40:54;;;;;;;;;12.00;12.00;;;;;22.99;46.17;98796.56;6266239;27;97547;-62
2022/07/10 00:43:59;;;;;;;;;13.00;12.00;;;;;22.81;46.20;98759.81;6265960;27;96633;-61
2022/07/10 00:47:03;;;;;;;;;11.00;10.60;;;;;22.97;46.37;98788.59;6265524;27;96680;-62
2022/07/10 00:50:07;;;;;;;;;12.00;11.00;;;;;22.94;46.13;98783.72;6265176;27;97171;-58
2022/07/10 00:53:11;;;;;;;;;13.00;12.00;;;;;22.93;46.30;98784.03;6266121;27;96559;-61
2022/07/10 00:56:17;;;;;;;;;12.00;11.00;;;;;22.79;46.40;98773.84;6265664;27;97494;-58
2022/07/10 00:59:23;;;;;;;;;12.60;12.60;;;;;22.88;46.65;98776.69;6240965;28;96840;-58
2022/07/10 01:02:26;;;;;;;;;15.00;13.00;;;;;22.85;46.58;98771.81;6253190;27;96713;-61
2022/07/10 01:05:30;;;;;;;;;14.00;13.80;;;;;22.79;46.89;98770.28;6265238;27;97713;-61
2022/07/10 01:08:34;;;;;;;;;13.40;12.40;;;;;22.62;47.32;98753.56;6263426;27;96824;-65
2022/07/10 01:11:39;;;;;;;;;13.20;12.20;;;;;22.64;47.12;98765.84;6264412;27;97615;-58
2022/07/10 01:14:43;;;;;;;;;14.00;13.00;;;;;22.62;47.39;98757.13;6264846;27;97431;-60
2022/07/10 01:17:48;;;;;;;;;14.20;12.80;;;;;22.44;47.43;98733.25;6251773;27;97155;-63
2022/07/10 01:20:54;;;;;;;;;14.00;13.20;;;;;22.61;47.43;98762.91;6245715;27;96945;-59
2022/07/10 01:23:57;;;;;;;;;11.80;11.80;;;;;22.58;47.62;98756.06;6264332;27;96603;-60
2022/07/10 01:27:01;;;;;;;;;12.60;11.60;;;;;22.59;47.92;98762.38;6265050;27;96616;-61
2022/07/10 01:30:05;;;;;;;;;15.00;13.40;;;;;22.59;47.51;98759.63;6264685;27;96394;-61
2022/07/10 01:33:08;;;;;;;;;12.40;12.00;;;;;22.62;47.95;98756.31;6264265;27;97332;-59
2022/07/10 01:36:14;;;;;;;;;14.00;13.00;;;;;22.63;47.81;98753.22;6264817;27;97343;-60
2022/07/10 01:39:17;;;;;;;;;14.40;14.00;;;;;22.60;47.78;98748.34;6264229;27;96515;-60
2022/07/10 01:42:20;;;;;;;;;14.20;14.20;;;;;22.59;47.46;98741.22;6264246;27;97880;-59
2022/07/10 01:45:24;;;;;;;;;12.75;12.00;;;;;22.59;47.79;98738.47;6265069;27;96810;-57
2022/07/10 01:48:28;;;;;;;;;14.00;12.60;;;;;22.59;47.66;98730.22;6264865;27;96956;-62
2022/07/10 01:51:33;;;;;;;;;14.00;13.00;;;;;22.57;47.57;98731.66;6244211;27;96913;-57
2022/07/10 01:54:36;;;;;;;;;13.00;13.00;;;;;22.54;47.59;98724.00;6264605;27;97490;-62
2022/07/10 01:57:39;;;;;;;;;14.40;12.40;;;;;22.49;48.08;98730.41;6264504;27;96595;-59
2022/07/10 02:00:44;;;;;;;;;15.75;14.50;;;;;22.45;48.18;98719.22;6263945;27;97441;-58
2022/07/10 02:07:12;;;;;;;;;13.00;12.00;;;;;22.35;48.05;98715.84;6263964;27;96512;-59
2022/07/10 02:10:15;;;;;;;;;14.00;14.00;;;;;22.33;48.54;98718.88;6264023;27;98104;-58
2022/07/10 02:13:20;;;;;;;;;15.40;14.00;;;;;22.29;48.50;98703.31;6244142;27;98367;-61
2022/07/10 02:16:23;;;;;;;;;14.00;13.00;;;;;22.32;48.58;98706.28;6264396;27;97529;-56
2022/07/10 02:19:29;;;;;;;;;15.60;14.40;;;;;22.28;48.33;98702.53;6245683;27;98033;-59
2022/07/10 02:22:34;;;;;;;;;14.60;13.40;;;;;22.25;48.59;98705.88;6262450;27;97423;-61
2022/07/10 02:25:38;;;;;;;;;16.00;15.00;;;;;22.21;48.43;98698.53;6263237;27;97450;-62
2022/07/10 02:28:42;;;;;;;;;16.25;15.25;;;;;22.21;48.59;98695.78;6264129;27;96571;-59
2022/07/10 02:31:45;;;;;;;;;17.00;16.20;;;;;22.19;48.69;98690.59;6263499;27;98287;-62
2022/07/10 02:34:48;;;;;;;;;16.00;14.25;;;;;22.22;48.41;98689.19;6245775;27;96676;-62
2022/07/10 02:37:53;;;;;;;;;17.40;17.00;;;;;22.28;48.24;98690.72;6263040;27;97018;-62
2022/07/10 02:40:56;;;;;;;;;16.20;15.20;;;;;22.32;48.42;98702.72;6263163;27;97199;-64
2022/07/10 02:44:03;;;;;;;;;16.00;15.00;;;;;22.35;48.00;98700.19;6263254;27;98302;-60
2022/07/10 02:47:06;;;;;;;;;16.00;14.50;;;;;22.39;48.00;98698.47;6263650;27;96535;-59
2022/07/10 02:50:10;;;;;;;;;18.40;15.40;;;;;22.40;47.87;98683.63;6263397;27;96976;-61
2022/07/10 02:53:15;;;;;;;;;17.00;17.00;;;;;22.47;47.88;98683.22;6244283;27;96492;-61
2022/07/10 02:56:18;;;;;;;;;13.60;13.00;;;;;22.49;48.17;98697.44;6262668;27;97353;-63
2022/07/10 02:59:21;;;;;;;;;14.00;14.00;;;;;22.53;48.12;98686.69;6262865;27;97530;-60
2022/07/10 03:02:24;;;;;;;;;15.00;14.00;;;;;22.56;48.14;98686.06;6261493;27;97352;-61
2022/07/10 03:05:28;;;;;;;;;14.00;13.00;;;;;22.62;48.05;98687.59;6262458;27;97464;-60
2022/07/10 03:08:33;;;;;;;;;13.00;12.60;;;;;22.66;47.68;98689.44;6261943;27;97576;-61
2022/07/10 03:11:36;;;;;;;;;17.00;15.50;;;;;22.70;47.94;98689.63;6262775;27;96473;-60
2022/07/10 03:14:40;;;;;;;;;12.00;12.00;;;;;22.73;47.42;98689.03;6244667;27;98085;-57
2022/07/10 03:17:43;;;;;;;;;15.00;13.60;;;;;22.77;47.39;98681.84;6262122;27;97079;-60
2022/07/10 03:20:47;;;;;;;;;17.00;15.00;;;;;22.78;47.11;98678.75;6262972;27;97524;-59
2022/07/10 03:23:52;;;;;;;;;14.00;13.00;;;;;22.81;47.26;98671.84;6262802;27;97451;-57
2022/07/10 03:26:55;;;;;;;;;15.00;14.00;;;;;22.85;47.41;98683.84;6244545;27;97068;-59
2022/07/10 03:29:59;;;;;;;;;17.00;16.50;;;;;22.87;47.02;98676.13;6262035;27;96869;-59
2022/07/10 03:33:03;;;;;;;;;13.00;12.00;;;;;22.88;47.07;98673.06;6262709;27;97490;-61
2022/07/10 03:36:07;;;;;;;;;14.00;14.00;;;;;22.83;47.03;98667.66;6241246;27;98323;-60
2022/07/10 03:39:11;;;;;;;;;13.00;12.80;;;;;22.94;47.18;98675.69;6243650;27;97948;-60
2022/07/10 03:42:15;;;;;;;;;16.25;14.25;;;;;22.92;47.34;98675.22;6261454;27;97049;-60
2022/07/10 03:45:18;;;;;;;;;15.00;13.00;;;;;22.97;47.19;98670.38;6262758;27;97400;-55
2022/07/10 03:48:22;;;;;;;;;13.80;13.00;;;;;23.00;47.24;98668.97;6262441;27;97696;-55
2022/07/10 03:51:25;;;;;;;;;15.40;14.40;;;;;22.98;47.33;98672.03;6262095;27;96507;-58
2022/07/10 03:54:30;;;;;;;;;15.60;15.00;;;;;23.00;47.48;98672.53;6261814;27;97509;-58
2022/07/10 04:00:54;;;;;;;;;12.60;12.60;;;;;23.02;47.41;98662.03;6232621;27;97538;-59
2022/07/10 04:03:58;;;;;;;;;15.00;14.60;;;;;23.08;47.29;98663.56;6262476;27;96791;-61
2022/07/10 04:07:02;;;;;;;;;14.00;13.00;;;;;23.09;47.22;98662.44;6237271;28;96978;-63
2022/07/10 04:10:09;;;;;;;;;11.00;11.00;;;;;23.12;47.33;98650.81;6256511;27;97093;-60
2022/07/10 04:13:13;;;;;;;;;13.60;13.00;;;;;23.18;47.46;98648.75;6243386;27;96766;-62
2022/07/10 04:16:17;;;;;;;;;13.00;13.00;;;;;23.23;47.01;98649.47;6237522;27;97437;-61
2022/07/10 04:19:21;;;;;;;;;11.20;11.00;;;;;23.30;46.76;98657.28;6261038;27;97404;-55
2022/07/10 04:22:25;;;;;;;;;12.00;11.00;;;;;23.35;46.78;98648.13;6260874;27;97389;-62
2022/07/10 04:25:30;;;;;;;;;10.60;10.60;;;;;23.32;46.88;98641.28;6261882;27;97473;-57
2022/07/10 04:28:33;;;;;;;;;10.00;9.00;;;;;23.43;46.49;98647.34;6261259;27;96662;-60
2022/07/10 04:31:36;;;;;;;;;10.25;10.25;;;;;23.47;46.74;98645.63;6259984;27;97587;-60
2022/07/10 04:34:40;;;;;;;;;12.00;12.00;;;;;23.49;46.41;98646.97;6242769;27;96673;-59
2022/07/10 04:37:43;;;;;;;;;10.80;10.80;;;;;23.56;46.22;98652.00;6261729;27;96996;-57
2022/07/10 04:40:48;;;;;;;;;10.00;9.00;;;;;23.56;46.22;98658.34;6261183;27;96911;-62
2022/07/10 04:43:51;;;;;;;;;12.00;10.60;;;;;23.58;46.17;98652.53;6259679;27;96460;-58
2022/07/10 04:46:54;;;;;;;;;12.00;12.00;;;;;23.61;46.23;98647.22;6262123;27;97460;-59
2022/07/10 04:49:58;;;;;;;;;11.00;10.00;;;;;23.66;46.06;98647.09;6243089;27;100510;-54
2022/07/10 04:53:01;;;;;;;;;7.60;7.00;;;;;23.73;46.03;98646.66;6262810;27;97412;-62
2022/07/10 04:56:06;;;;;;;;;11.00;9.80;;;;;23.76;45.66;98643.25;6263685;27;97101;-65
2022/07/10 04:59:10;;;;;;;;;9.75;9.75;;;;;23.80;45.08;98648.97;6262532;27;97445;-59
2022/07/10 05:02:13;;;;;;;;;10.60;10.20;;;;;23.82;45.18;98653.03;6262361;27;97345;-65
2022/07/10 05:05:17;;;;;;;;;13.00;12.00;;;;;23.83;45.06;98654.66;6265633;27;96434;-56
2022/07/10 05:08:20;;;;;;;;;10.00;10.00;;;;;23.82;45.48;98653.03;6264591;27;97961;-59
2022/07/10 05:11:25;;;;;;;;;11.00;10.40;;;;;23.82;45.09;98644.78;6265715;27;97009;-60
2022/07/10 05:14:28;;;;;;;;;11.00;10.40;;;;;23.89;45.00;98647.09;6246088;27;98046;-61
2022/07/10 05:17:32;;;;;;;;;11.00;10.00;;;;;23.92;44.40;98657.47;6263906;27;97334;-59
2022/07/10 05:20:37;;;;;;;;;11.00;11.00;;;;;23.97;44.43;98647.13;6263871;27;97044;-57
2022/07/10 05:23:41;;;;;;;;;13.00;12.00;;;;;24.00;44.25;98646.50;6257912;27;97465;-62
2022/07/10 05:26:46;;;;;;;;;11.00;10.00;;;;;24.03;43.97;98642.31;6264893;27;96988;-62
2022/07/10 05:29:50;;;;;;;;;7.00;6.00;;;;;24.05;43.95;98643.59;6265048;27;96876;-61
2022/07/10 05:32:53;;;;;;;;;11.00;11.00;;;;;24.12;43.85;98643.97;6260957;27;97768;-56
2022/07/10 05:35:57;;;;;;;;;10.00;9.60;;;;;24.19;43.77;98648.25;6262786;27;96962;-59
2022/07/10 05:39:00;;;;;;;;;11.25;11.25;;;;;24.10;43.51;98615.94;6246100;27;96697;-59
2022/07/10 05:42:05;;;;;;;;;8.20;8.00;;;;;24.28;43.63;98643.59;6264184;27;98064;-59
2022/07/10 05:45:09;;;;;;;;;11.00;10.25;;;;;24.35;43.31;98644.75;6263285;27;96608;-58
2022/07/10 05:48:13;;;;;;;;;10.00;10.00;;;;;24.34;43.69;98645.06;6263394;27;97114;-63
2022/07/10 05:51:16;;;;;;;;;13.00;12.60;;;;;24.38;43.50;98651.59;6263785;27;96802;-60
2022/07/10 05:54:39;;;;;;;;;10.50;10.00;;;;;24.35;43.05;98653.03;6263019;27;96661;-60
2022/07/10 05:57:44;;;;;;;;;9.00;9.00;;;;;24.38;43.51;98654.34;6264194;27;96770;-60
2022/07/10 06:00:49;;;;;;;;;12.60;11.60;;;;;24.35;43.20;98654.97;6263397;27;96727;-61
2022/07/10 06:03:53;;;;;;;;;12.60;12.00;;;;;24.39;43.32;98653.19;6264728;27;97212;-58
2022/07/10 06:06:56;;;;;;;;;12.00;11.40;;;;;24.41;43.23;98653.72;6263304;27;97574;-61
2022/07/10 06:09:59;;;;;;;;;16.75;15.00;;;;;24.45;43.22;98646.41;6263149;27;97472;-62
2022/07/10 06:13:04;;;;;;;;;12.20;11.80;;;;;24.50;42.92;98651.78;6264255;27;97119;-56
2022/07/10 06:16:08;;;;;;;;;13.00;12.50;;;;;24.48;43.10;98648.56;6243293;27;97111;-63
2022/07/10 06:19:12;;;;;;;;;9.00;9.00;;;;;24.55;43.27;98659.91;6264383;27;97475;-56
2022/07/10 06:22:33;;;;;;;;;7.80;7.00;;;;;24.59;43.52;98658.16;6244022;27;97973;-62
2022/07/10 06:25:36;;;;;;;;;7.80;7.40;;;;;24.64;43.02;98652.50;6263961;27;97131;-60
2022/07/10 06:28:41;;;;;;;;;14.00;14.00;;;;;24.71;42.77;98647.34;6245868;27;97149;-62
2022/07/10 06:31:45;;;;;;;;;13.40;13.40;;;;;24.82;43.09;98648.69;6245194;27;97817;-60
2022/07/10 06:34:49;;;;;;;;;13.50;12.50;;;;;24.99;42.50;98648.72;6261377;27;97654;-59
2022/07/10 06:37:52;;;;;;;;;11.00;11.00;;;;;25.16;41.93;98649.91;6263337;27;97441;-61
2022/07/10 06:40:55;;;;;;;;;11.00;10.40;;;;;25.34;41.42;98649.59;6245428;27;97852;-64
2022/07/10 06:44:02;;;;;;;;;12.75;11.75;;;;;25.46;40.90;98651.72;6263073;27;96825;-59
2022/07/10 06:50:31;;;;;;;;;8.20;8.00;;;;;25.63;40.93;98642.63;6263059;27;97066;-63
2022/07/10 06:53:35;;;;;;;;;9.40;9.00;;;;;25.69;40.47;98644.91;6262502;27;96901;-61
2022/07/10 06:56:38;;;;;;;;;8.00;8.00;;;;;25.76;40.25;98638.84;6263821;27;96369;-56
2022/07/10 06:59:42;;;;;;;;;10.40;10.40;;;;;25.89;39.44;98643.41;6263638;27;97039;-62
2022/07/10 07:02:46;;;;;;;;;11.80;11.60;;;;;26.01;40.13;98638.00;6263189;27;97295;-60
2022/07/10 07:05:50;;;;;;;;;7.60;7.60;;;;;26.12;39.74;98644.81;6262002;27;97557;-61
2022/07/10 07:08:53;;;;;;;;;9.40;9.40;;;;;26.19;39.49;98649.84;6262155;27;97971;-56
2022/07/10 07:11:56;;;;;;;;;8.40;8.00;;;;;26.28;39.05;98651.47;6262843;27;96914;-55
2022/07/10 07:15:01;;;;;;;;;9.00;8.40;;;;;26.44;38.60;98648.94;6262683;27;97541;-59
2022/07/10 07:18:11;;;;;;;;;1.33;1.33;;;;;26.59;38.38;98655.88;6243592;27;96708;-58
2022/07/10 07:24:37;;;;;;;;;6.00;6.00;;;;;26.89;35.74;98653.97;6261969;27;96556;-59
2022/07/10 07:27:41;;;;;;;;;6.00;6.00;;;;;27.02;35.92;98661.22;6245239;27;97454;-58
2022/07/10 07:30:46;;;;;;;;;5.00;4.50;;;;;27.13;35.63;98665.19;6263104;27;96380;-54
2022/07/10 07:33:50;;;;;;;;;5.33;4.33;;;;;27.23;36.36;98664.81;6262815;27;96737;-58
2022/07/10 07:36:53;;;;;;;;;6.20;6.20;;;;;27.35;36.32;98659.34;6261933;27;97430;-56
2022/07/10 07:39:56;;;;;;;;;6.00;5.00;;;;;27.47;35.48;98661.38;6244808;27;99026;-57
2022/07/10 07:43:01;;;;;;;;;3.25;3.25;;;;;27.58;34.35;98657.06;6262549;27;96385;-62
2022/07/10 07:46:05;;;;;;;;;9.00;9.00;;;;;27.68;35.58;98661.38;6244546;27;97423;-62
2022/07/10 07:49:09;;;;;;;;;6.00;5.60;;;;;27.74;35.42;98660.03;6227079;27;98585;-56
2022/07/10 07:52:13;;;;;;;;;4.00;4.00;;;;;27.75;33.84;98654.16;6262476;27;97399;-54
2022/07/10 07:55:18;;;;;;;;;5.00;4.00;;;;;27.78;34.48;98661.78;6262874;27;97047;-53
2022/07/10 07:58:22;;;;;;;;;5.00;4.25;;;;;27.79;34.71;98666.19;6262089;27;97520;-56
2022/07/10 08:01:27;;;;;;;;;7.00;6.25;;;;;27.77;34.59;98664.88;6262827;27;97311;-59
2022/07/10 08:04:30;;;;;;;;;5.80;5.80;;;;;27.68;34.50;98667.75;6262507;27;97576;-51
2022/07/10 08:07:35;;;;;;;;;5.00;5.00;;;;;27.68;33.90;98667.75;6240318;27;98431;-58
2022/07/10 08:10:39;;;;;;;;;7.40;7.40;;;;;27.53;33.76;98641.47;6240223;27;97748;-57
2022/07/10 08:13:47;;;;;;;;;6.00;6.00;;;;;27.69;34.54;98660.25;6260330;27;97557;-55
2022/07/10 08:16:52;;;;;;;;;5.60;5.60;;;;;27.79;33.72;98662.59;6256362;27;97346;-59
2022/07/10 08:19:55;;;;;;;;;3.40;3.40;;;;;27.84;34.16;98662.41;6252051;27;97905;-62
2022/07/10 08:22:58;;;;;;;;;6.40;6.40;;;;;27.89;32.51;98645.56;6264930;27;96775;-61
2022/07/10 08:26:02;;;;;;;;;4.00;4.00;;;;;27.89;33.79;98662.19;6255223;27;96440;-61
2022/07/10 08:29:06;;;;;;;;;6.00;6.00;;;;;27.87;33.71;98662.50;6261407;27;98082;-62
2022/07/10 08:32:10;;;;;;;;;5.00;5.00;;;;;27.86;32.53;98657.31;6242332;27;99183;-60
2022/07/10 08:35:14;;;;;;;;;4.00;4.00;;;;;27.84;31.98;98654.09;6259208;27;97482;-61
2022/07/10 08:38:18;;;;;;;;;4.00;4.00;;;;;27.88;33.75;98666.09;6263134;27;97263;-56
2022/07/10 08:41:25;;;;;;;;;5.00;5.00;;;;;27.88;32.94;98661.38;6262059;27;97154;-63
2022/07/10 08:44:29;;;;;;;;;5.00;5.00;;;;;27.87;33.44;98658.94;6233575;28;96776;-58
2022/07/10 08:47:38;;;;;;;;;5.00;5.00;;;;;27.85;32.84;98661.25;6252432;27;96410;-56
2022/07/10 08:50:48;;;;;;;;;4.60;4.60;;;;;27.74;31.00;98671.94;6265136;27;96706;-60
2022/07/10 08:53:52;;;;;;;;;5.60;5.60;;;;;27.63;31.92;98692.88;6264779;27;97400;-57
2022/07/10 08:56:57;;;;;;;;;4.60;4.60;;;;;27.30;31.97;98662.31;6265305;27;96818;-61
2022/07/10 09:00:01;;;;;;;;;3.00;3.00;;;;;27.38;32.88;98680.00;6263768;27;96952;-59
2022/07/10 09:03:06;;;;;;;;;5.00;5.00;;;;;27.29;33.64;98685.63;6263910;27;97791;-57
2022/07/10 09:06:11;;;;;;;;;3.80;3.20;;;;;27.28;34.31;98689.53;6264657;27;98314;-60
2022/07/10 09:09:15;;;;;;;;;4.00;4.00;;;;;27.35;33.99;98678.75;6260080;27;96858;-59
2022/07/10 09:12:18;;;;;;;;;6.00;6.00;;;;;27.44;33.58;98673.13;6264567;27;96713;-63
2022/07/10 09:15:23;;;;;;;;;5.00;5.00;;;;;27.61;34.01;98675.00;6265231;27;97168;-61
2022/07/10 09:18:27;;;;;;;;;6.00;6.00;;;;;27.79;33.95;98671.72;6263486;27;97090;-62
2022/07/10 09:21:34;;;;;;;;;5.75;5.00;;;;;27.93;33.92;98672.25;6263213;27;96868;-61
2022/07/10 09:24:38;;;;;;;;;7.00;6.60;;;;;27.88;34.01;98691.03;6263930;27;97216;-54
2022/07/10 09:27:52;;;;;;;;;3.00;3.00;;;;;27.81;32.83;98683.25;6263834;27;96905;-61
2022/07/10 09:30:57;;;;;;;;;4.00;4.00;;;;;27.72;33.84;98693.59;6264906;27;97474;-57
2022/07/10 09:34:02;;;;;;;;;5.25;5.25;;;;;27.58;31.52;98688.34;6263647;27;98628;-58
2022/07/10 09:37:22;;;;;;;;;4.00;4.00;;;;;27.50;32.41;98696.75;6265143;27;96503;-62
2022/07/10 09:40:28;;;;;;;;;4.80;4.80;;;;;27.43;33.04;98688.94;6265008;27;97074;-58
2022/07/10 09:43:44;;;;;;;;;2.00;2.00;;;;;27.44;32.75;98686.97;6262823;27;97653;-57
2022/07/10 09:46:48;;;;;;;;;4.00;4.00;;;;;27.55;33.49;98683.50;6246599;27;98583;-56
2022/07/10 09:49:52;;;;;;;;;4.00;4.00;;;;;27.58;33.63;98682.81;6263536;27;96794;-58
2022/07/10 09:52:57;;;;;;;;;5.00;5.00;;;;;27.64;32.67;98683.44;6264365;27;96791;-61
2022/07/10 09:56:02;;;;;;;;;4.00;4.00;;;;;27.54;31.05;98662.50;6264671;27;97057;-60
2022/07/10 09:59:10;;;;;;;;;4.00;3.00;;;;;27.74;31.03;98683.00;6245750;27;97068;-54
2022/07/10 10:02:17;;;;;;;;;4.00;4.00;;;;;27.81;30.39;98688.81;6264728;27;97096;-62
2022/07/10 10:05:27;;;;;;;;;4.00;4.00;;;;;27.86;32.06;98685.00;6264405;27;97826;-61
2022/07/10 10:08:33;;;;;;;;;4.00;4.00;;;;;27.93;30.99;98688.06;6264407;27;97530;-55
2022/07/10 10:11:37;;;;;;;;;3.00;3.00;;;;;28.02;32.50;98670.19;6264366;27;97422;-56
2022/07/10 10:14:41;;;;;;;;;4.00;4.00;;;;;28.15;31.96;98675.81;6263946;27;96367;-60
2022/07/10 10:17:46;;;;;;;;;4.40;4.40;;;;;28.32;30.60;98668.09;6263758;27;97535;-59
2022/07/10 10:20:52;;;;;;;;;6.00;6.00;;;;;28.57;31.36;98665.38;6263529;27;98000;-60
2022/07/10 10:23:56;;;;;;;;;5.60;5.60;;;;;28.80;30.80;98658.22;6263987;27;97373;-56
2022/07/10 10:27:01;;;;;;;;;3.00;3.00;;;;;28.89;31.27;98644.22;6263279;27;96596;-52
2022/07/10 10:30:05;;;;;;;;;7.00;6.00;;;;;28.89;28.66;98653.38;6263781;27;98022;-61
2022/07/10 10:33:51;;;;;;;;;5.40;5.40;;;;;28.86;30.79;98659.63;6263764;27;97535;-51
2022/07/10 10:36:56;;;;;;;;;4.00;4.00;;;;;28.81;30.79;98654.31;6255537;27;97729;-59
2022/07/10 10:39:59;;;;;;;;;3.60;3.60;;;;;28.75;29.83;98655.69;6238510;28;96797;-59
2022/07/10 10:43:17;;;;;;;;;5.00;5.00;;;;;28.64;29.11;98658.06;6261193;27;97429;-60
2022/07/10 10:46:25;;;;;;;;;4.25;3.25;;;;;28.44;30.56;98659.78;6263491;27;96974;-64
2022/07/10 10:49:49;;;;;;;;;3.00;3.00;;;;;28.26;28.91;98668.66;6264008;27;96555;-60
2022/07/10 10:53:02;;;;;;;;;7.00;7.00;;;;;28.08;30.42;98662.47;6259981;27;97466;-56
2022/07/10 10:56:24;;;;;;;;;5.00;5.00;;;;;27.93;29.57;98671.44;6263471;27;97540;-60
2022/07/10 10:59:45;;;;;;;;;4.00;4.00;;;;;27.81;31.13;98666.63;6263536;27;97403;-53
2022/07/10 11:02:48;;;;;;;;;5.00;4.80;;;;;27.82;29.19;98671.03;6244247;27;100101;-57
2022/07/10 11:05:52;;;;;;;;;5.00;4.60;;;;;27.88;30.28;98675.22;6263127;27;97369;-55
2022/07/10 11:09:00;;;;;;;;;4.60;4.60;;;;;27.99;29.26;98667.28;6262973;27;96954;-59
2022/07/10 11:12:05;;;;;;;;;6.00;6.00;;;;;28.17;29.36;98676.25;6263200;27;96599;-58
2022/07/10 11:15:15;;;;;;;;;4.00;4.00;;;;;28.40;30.77;98680.22;6261148;27;96610;-58
2022/07/10 11:18:21;;;;;;;;;5.00;4.80;;;;;28.55;27.93;98664.88;6261221;27;97436;-62
2022/07/10 11:21:26;;;;;;;;;5.00;5.00;;;;;28.71;29.48;98668.59;6262844;27;97590;-56
2022/07/10 11:24:43;;;;;;;;;4.80;4.80;;;;;28.81;29.98;98677.31;6263104;27;96862;-60
2022/07/10 11:28:08;;;;;;;;;5.00;5.00;;;;;28.91;29.22;98672.44;6263154;27;97454;-56
2022/07/10 11:31:11;;;;;;;;;4.00;4.00;;;;;29.00;29.36;98667.59;6258117;27;96805;-58
2022/07/10 11:34:15;;;;;;;;;5.40;5.40;;;;;29.07;28.51;98674.19;6238814;27;96506;-57
2022/07/10 11:37:18;;;;;;;;;3.40;3.40;;;;;29.14;28.33;98662.47;6257423;27;96884;-56
2022/07/10 11:40:23;;;;;;;;;3.75;3.75;;;;;29.14;28.46;98665.25;6262539;27;97484;-63
2022/07/10 11:43:28;;;;;;;;;5.00;5.00;;;;;29.07;28.50;98665.84;6262820;27;96827;-58
2022/07/10 11:46:33;;;;;;;;;5.00;4.40;;;;;28.93;28.80;98665.38;6262523;27;96561;-62
2022/07/10 11:49:45;;;;;;;;;4.50;4.50;;;;;28.81;27.95;98682.06;6243804;27;96602;-61
2022/07/10 11:52:49;;;;;;;;;3.00;3.00;;;;;28.65;29.51;98678.31;6261993;27;96922;-59
2022/07/10 11:55:55;;;;;;;;;3.40;3.40;;;;;28.55;29.60;98673.22;6265651;27;97725;-59
2022/07/10 11:59:03;;;;;;;;;3.00;3.00;;;;;28.44;28.97;98664.56;6270117;27;96645;-57
2022/07/10 12:02:06;;;;;;;;;3.25;3.25;;;;;28.37;28.09;98669.84;6269440;27;97321;-58
2022/07/10 12:05:30;;;;;;;;;5.40;5.00;;;;;28.34;29.63;98676.09;6269231;27;97249;-58
2022/07/10 12:08:44;;;;;;;;;4.00;3.00;;;;;28.39;28.85;98667.56;6270734;27;97743;-65
2022/07/10 12:12:00;;;;;;;;;5.00;4.00;;;;;28.55;29.29;98665.69;6270409;27;97054;-56
2022/07/10 12:15:05;;;;;;;;;6.40;6.40;;;;;28.65;28.30;98653.34;6270591;27;96949;-59
2022/07/10 12:18:10;;;;;;;;;5.00;4.80;;;;;28.79;27.66;98657.41;6268099;27;97538;-59
2022/07/10 12:21:14;;;;;;;;;3.00;3.00;;;;;28.92;27.51;98672.13;6270213;27;96431;-57
2022/07/10 12:24:19;;;;;;;;;5.67;5.67;;;;;29.00;28.67;98673.94;6267913;27;96497;-58
2022/07/10 12:27:42;;;;;;;;;3.60;3.60;;;;;29.00;28.49;98662.84;6265406;27;96700;-56
2022/07/10 12:30:47;;;;;;;;;3.00;3.00;;;;;28.94;28.14;98649.53;6266847;27;96901;-56
2022/07/10 12:33:52;;;;;;;;;3.00;2.20;;;;;29.07;27.69;98660.31;6270667;27;97058;-60
2022/07/10 12:36:56;;;;;;;;;4.00;4.00;;;;;29.16;26.90;98674.88;6269701;27;96585;-59
2022/07/10 12:40:00;;;;;;;;;5.00;4.00;;;;;29.23;24.41;98660.38;6267118;27;97356;-62
2022/07/10 12:43:06;;;;;;;;;4.00;3.00;;;;;29.37;27.31;98665.59;6269378;27;96982;-58
2022/07/10 12:46:11;;;;;;;;;3.40;3.00;;;;;29.48;27.58;98664.75;6270087;27;97500;-55
2022/07/10 12:49:14;;;;;;;;;5.50;5.50;;;;;29.51;27.29;98657.69;6268572;27;97953;-58
2022/07/10 12:52:25;;;;;;;;;6.00;6.00;;;;;29.38;27.08;98643.03;6264922;27;98040;-62
2022/07/10 12:55:37;;;;;;;;;2.00;2.00;;;;;29.63;27.08;98668.75;6266968;27;98110;-56
2022/07/10 12:58:45;;;;;;;;;3.60;3.60;;;;;29.65;27.18;98669.22;6258428;27;96643;-65
2022/07/10 13:01:49;;;;;;;;;3.60;3.60;;;;;29.58;24.03;98667.03;6265687;27;97361;-59
2022/07/10 13:04:54;;;;;;;;;4.00;4.00;;;;;29.60;27.16;98669.47;6265080;27;97029;-58
2022/07/10 13:08:10;;;;;;;;;4.00;3.60;;;;;29.55;24.88;98667.75;6263220;27;96776;-62
2022/07/10 13:11:13;;;;;;;;;5.00;5.00;;;;;29.50;27.67;98675.53;6244410;27;97027;-54
2022/07/10 13:14:19;;;;;;;;;5.00;5.00;;;;;29.44;27.61;98674.94;6263690;27;97508;-56
2022/07/10 13:17:23;;;;;;;;;1.20;1.20;;;;;29.36;27.12;98672.31;6259903;27;96868;-58
2022/07/10 13:20:26;;;;;;;;;4.00;4.00;;;;;29.27;28.08;98683.53;6244379;27;97508;-55
2022/07/10 13:23:30;;;;;;;;;3.60;3.60;;;;;29.21;27.10;98674.63;6243889;27;97907;-62
2022/07/10 13:26:34;;;;;;;;;3.00;3.00;;;;;29.18;28.31;98672.53;6245107;27;96503;-56
2022/07/10 13:29:38;;;;;;;;;4.00;3.80;;;;;29.13;28.19;98688.63;6262163;27;97434;-55
2022/07/10 13:32:42;;;;;;;;;3.00;3.00;;;;;29.12;28.07;98692.56;6261722;27;97408;-59
2022/07/10 13:35:45;;;;;;;;;3.75;3.75;;;;;29.14;26.54;98690.25;6260280;27;97454;-56
2022/07/10 13:38:49;;;;;;;;;4.80;4.80;;;;;29.15;27.08;98698.22;6261307;27;98304;-59
2022/07/10 13:41:52;;;;;;;;;4.40;4.40;;;;;29.12;27.74;98693.38;6261947;27;97954;-60
2022/07/10 13:44:57;;;;;;;;;3.00;3.00;;;;;29.17;27.73;98686.78;6262457;27;96733;-62
2022/07/10 13:48:01;;;;;;;;;4.40;4.40;;;;;29.16;27.53;98690.72;6263622;27;96588;-59
2022/07/10 13:51:04;;;;;;;;;3.60;3.60;;;;;29.12;24.65;98687.03;6262629;27;96904;-59
2022/07/10 13:54:07;;;;;;;;;4.40;4.40;;;;;29.15;24.09;98684.34;6262432;27;96629;-60
2022/07/10 13:57:11;;;;;;;;;3.00;2.00;;;;;29.19;24.45;98678.91;6261679;27;97197;-60
2022/07/10 14:00:16;;;;;;;;;4.00;4.00;;;;;29.19;23.46;98687.22;6246077;27;96941;-64
2022/07/10 14:03:19;;;;;;;;;5.00;5.00;;;;;29.19;23.56;98681.69;6226424;27;96698;-61
2022/07/10 14:06:23;;;;;;;;;2.60;2.00;;;;;29.14;23.34;98688.28;6261614;27;97529;-61
2022/07/10 14:09:27;;;;;;;;;6.80;6.80;;;;;29.12;23.95;98676.72;6236269;27;97218;-62
2022/07/10 14:12:32;;;;;;;;;4.00;4.00;;;;;29.14;24.20;98681.91;6244568;27;96628;-59
2022/07/10 14:15:37;;;;;;;;;4.00;4.00;;;;;29.07;24.09;98687.25;6262074;27;96666;-67
2022/07/10 14:18:41;;;;;;;;;5.40;4.80;;;;;29.02;25.07;98668.88;6261356;27;97269;-61
2022/07/10 14:21:45;;;;;;;;;4.00;4.00;;;;;29.02;25.20;98677.19;6252725;27;96791;-60
2022/07/10 14:24:49;;;;;;;;;3.20;3.00;;;;;29.02;24.10;98681.94;6244361;27;98730;-59
2022/07/10 14:27:52;;;;;;;;;4.00;3.00;;;;;29.05;24.25;98684.00;6243147;27;96739;-58
2022/07/10 14:30:59;;;;;;;;;6.00;6.00;;;;;29.07;24.30;98693.63;6242223;27;98498;-61
2022/07/10 14:34:02;;;;;;;;;4.00;4.00;;;;;28.95;23.54;98685.28;6262940;27;97864;-61
2022/07/10 14:37:05;;;;;;;;;7.00;5.00;;;;;28.94;24.18;98688.41;6259783;27;97483;-63